createdAt,value
2023-01-29T00:02:15.436Z,139.72
2023-01-29T00:05:27.988Z,131.87
2023-01-29T00:08:36.478Z,143.49
2023-01-29T00:11:45.913Z,153.00
2023-01-29T00:14:51.759Z,145.11
2023-01-29T00:17:58.264Z,158.96
2023-01-29T00:21:04.043Z,142.08
2023-01-29T00:24:11.363Z,139.49
2023-01-29T00:27:19.741Z,130.85
2023-01-29T00:30:28.947Z,127.89
2023-01-29T00:33:34.761Z,126.23
2023-01-29T00:36:41.540Z,130.77
2023-01-29T00:39:48.428Z,129.38
2023-01-29T00:43:10.108Z,129.64
2023-01-29T00:46:17.560Z,127.34
2023-01-29T00:49:24.669Z,130.28
2023-01-29T00:52:31.193Z,132.94
2023-01-29T00:55:37.867Z,126.29
2023-01-29T00:58:46.249Z,128.23
2023-01-29T01:02:05.303Z,126.46
2023-01-29T01:05:18.139Z,125.16
2023-01-29T01:08:37.289Z,128.38
2023-01-29T01:11:43.035Z,127.40
2023-01-29T01:14:52.654Z,125.51
2023-01-29T01:18:01.465Z,120.58
2023-01-29T01:21:09.238Z,123.69
2023-01-29T01:24:15.632Z,117.07
2023-01-29T01:27:22.877Z,119.47
2023-01-29T01:30:33.201Z,120.22
2023-01-29T01:33:40.693Z,116.40
2023-01-29T01:36:46.490Z,106.59
2023-01-29T01:39:57.964Z,106.20
2023-01-29T01:43:05.443Z,92.44
2023-01-29T01:46:15.226Z,82.78
2023-01-29T01:49:24.506Z,83.81
2023-01-29T01:52:35.259Z,97.06
2023-01-29T01:55:51.749Z,95.65
2023-01-29T01:59:02.368Z,90.34
2023-01-29T02:02:23.829Z,81.41
2023-01-29T02:05:46.095Z,95.63
2023-01-29T02:09:13.921Z,100.92
2023-01-29T02:12:22.865Z,93.01
2023-01-29T02:15:28.875Z,89.47
2023-01-29T02:18:39.673Z,96.53
2023-01-29T02:22:25.932Z,96.35
2023-01-29T02:26:13.456Z,94.79
2023-01-29T02:29:35.911Z,96.64
2023-01-29T02:32:58.872Z,94.25
2023-01-29T02:36:26.035Z,105.71
2023-01-29T02:39:42.444Z,140.92
2023-01-29T02:43:06.542Z,128.76
2023-01-29T02:46:31.831Z,149.63
2023-01-29T02:49:50.372Z,103.36
2023-01-29T02:53:09.597Z,102.19
2023-01-29T02:56:29.687Z,102.92
2023-01-29T02:59:48.027Z,79.50
2023-01-29T03:03:06.857Z,86.81
2023-01-29T03:06:24.399Z,88.33
2023-01-29T03:09:42.584Z,87.99
2023-01-29T03:12:59.954Z,76.57
2023-01-29T03:16:19.230Z,78.73
2023-01-29T03:19:40.010Z,93.34
2023-01-29T03:23:07.949Z,98.30
2023-01-29T03:26:33.728Z,83.00
2023-01-29T03:29:58.847Z,79.82
2023-01-29T03:33:23.766Z,80.13
2023-01-29T03:36:45.840Z,80.31
2023-01-29T03:39:55.752Z,83.79
2023-01-29T03:43:14.882Z,91.75
2023-01-29T03:46:34.332Z,84.78
2023-01-29T03:50:00.997Z,84.06
2023-01-29T03:53:24.074Z,83.17
2023-01-29T03:56:52.736Z,74.93
2023-01-29T04:00:17.495Z,76.06
2023-01-29T04:03:43.083Z,77.50
2023-01-29T04:06:56.916Z,79.33
2023-01-29T04:10:15.229Z,84.79
2023-01-29T04:13:22.828Z,66.73
2023-01-29T04:16:39.227Z,67.08
2023-01-29T04:19:54.855Z,59.05
2023-01-29T04:23:01.491Z,65.01
2023-01-29T04:26:42.139Z,69.85
2023-01-29T04:30:13.953Z,67.74
2023-01-29T04:33:40.209Z,71.89
2023-01-29T04:37:05.478Z,68.09
2023-01-29T04:40:27.219Z,64.09
2023-01-29T04:43:48.940Z,66.56
2023-01-29T04:47:15.829Z,68.08
2023-01-29T04:50:37.182Z,77.97
2023-01-29T04:54:03.096Z,80.18
2023-01-29T04:57:25.702Z,76.59
2023-01-29T05:00:45.299Z,86.22
2023-01-29T05:03:58.189Z,84.70
2023-01-29T05:07:09.969Z,85.55
2023-01-29T05:10:29.280Z,86.68
2023-01-29T05:13:45.103Z,90.64
2023-01-29T05:17:01.405Z,92.05
2023-01-29T05:20:09.071Z,117.18
2023-01-29T05:23:21.286Z,102.05
2023-01-29T05:26:39.857Z,84.59
2023-01-29T05:29:50.299Z,79.08
2023-01-29T05:32:58.658Z,83.05
2023-01-29T05:36:06.943Z,87.67
2023-01-29T05:39:12.852Z,90.17
2023-01-29T05:42:22.725Z,91.16
2023-01-29T05:45:29.050Z,94.54
2023-01-29T05:48:38.360Z,104.04
2023-01-29T05:51:44.306Z,128.83
2023-01-29T05:54:50.870Z,91.43
2023-01-29T05:57:56.635Z,97.21
2023-01-29T06:01:13.338Z,91.08
2023-01-29T06:04:22.205Z,95.23
2023-01-29T06:07:29.802Z,92.14
2023-01-29T06:10:36.276Z,100.76
2023-01-29T06:13:43.627Z,87.83
2023-01-29T06:16:49.559Z,88.32
2023-01-29T06:19:58.965Z,88.25
2023-01-29T06:23:05.151Z,92.31
2023-01-29T06:26:17.302Z,97.12
2023-01-29T06:29:23.086Z,123.91
2023-01-29T06:32:30.632Z,97.52
2023-01-29T06:35:39.145Z,108.98
2023-01-29T06:38:45.771Z,115.07
2023-01-29T06:41:51.767Z,125.88
2023-01-29T06:44:58.419Z,121.59
2023-01-29T06:48:04.124Z,116.29
2023-01-29T06:51:14.857Z,116.25
2023-01-29T06:54:20.650Z,191.01
2023-01-29T06:57:27.638Z,222.00
2023-01-29T07:00:33.645Z,257.91
2023-01-29T07:03:41.811Z,284.54
2023-01-29T07:06:50.250Z,289.14
2023-01-29T07:09:56.747Z,177.18
2023-01-29T07:13:03.175Z,216.78
2023-01-29T07:16:10.540Z,133.99
2023-01-29T07:19:16.549Z,144.41
2023-01-29T07:22:25.844Z,187.26
2023-01-29T07:25:31.713Z,169.20
2023-01-29T07:28:40.849Z,191.70
2023-01-29T07:31:46.855Z,188.75
2023-01-29T07:34:53.519Z,186.33
2023-01-29T07:38:02.107Z,179.38
2023-01-29T07:41:09.315Z,184.54
2023-01-29T07:44:18.273Z,210.13
2023-01-29T07:47:24.880Z,200.05
2023-01-29T07:50:31.404Z,184.01
2023-01-29T07:53:40.760Z,278.10
2023-01-29T07:56:46.610Z,228.17
2023-01-29T07:59:53.339Z,243.09
2023-01-29T08:03:07.026Z,229.70
2023-01-29T08:06:13.861Z,186.48
2023-01-29T08:09:22.339Z,148.07
2023-01-29T08:12:29.064Z,138.73
2023-01-29T08:15:39.215Z,115.57
2023-01-29T08:18:47.967Z,117.45
2023-01-29T08:21:53.709Z,110.99
2023-01-29T08:25:08.318Z,145.43
2023-01-29T08:28:14.944Z,109.55
2023-01-29T08:31:23.422Z,102.39
2023-01-29T08:34:29.272Z,98.42
2023-01-29T08:37:36.207Z,124.85
2023-01-29T08:40:47.415Z,116.27
2023-01-29T08:43:53.953Z,114.95
2023-01-29T08:46:59.785Z,130.48
2023-01-29T08:50:06.542Z,115.30
2023-01-29T08:53:13.146Z,112.23
2023-01-29T08:56:22.340Z,111.91
2023-01-29T08:59:28.283Z,130.06
2023-01-29T09:02:35.039Z,128.43
2023-01-29T09:05:43.310Z,126.78
2023-01-29T09:08:51.332Z,127.17
2023-01-29T09:11:59.923Z,152.55
2023-01-29T09:15:10.661Z,251.15
2023-01-29T09:18:25.058Z,182.41
2023-01-29T09:21:34.801Z,174.78
2023-01-29T09:24:40.626Z,171.68
2023-01-29T09:27:49.751Z,161.79
2023-01-29T09:30:55.741Z,167.67
2023-01-29T09:34:02.351Z,150.17
2023-01-29T09:37:08.323Z,153.54
2023-01-29T09:40:29.420Z,143.89
2023-01-29T09:43:52.203Z,159.92
2023-01-29T09:47:05.281Z,162.73
2023-01-29T09:50:21.359Z,205.04
2023-01-29T09:53:42.494Z,158.06
2023-01-29T09:56:51.374Z,229.79
2023-01-29T10:00:03.042Z,169.17
2023-01-29T10:03:38.990Z,153.41
2023-01-29T10:07:10.529Z,110.44
2023-01-29T10:10:46.494Z,136.97
2023-01-29T10:14:14.702Z,116.54
2023-01-29T10:17:53.319Z,106.27
2023-01-29T10:21:27.790Z,119.81
2023-01-29T10:24:44.724Z,129.46
2023-01-29T10:27:58.172Z,124.84
2023-01-29T10:31:18.812Z,162.23
2023-01-29T10:34:46.092Z,133.45
2023-01-29T10:37:56.885Z,134.79
2023-01-29T10:41:52.536Z,145.10
2023-01-29T10:45:29.141Z,137.98
2023-01-29T10:48:58.297Z,146.84
2023-01-29T10:52:29.269Z,209.46
2023-01-29T10:55:54.141Z,212.62
2023-01-29T10:59:08.105Z,186.86
2023-01-29T11:02:21.480Z,196.94
2023-01-29T11:05:37.550Z,200.93
2023-01-29T11:08:59.049Z,238.84
2023-01-29T11:12:13.633Z,222.78
2023-01-29T11:15:29.132Z,218.56
2023-01-29T11:18:57.733Z,239.36
2023-01-29T11:22:05.089Z,237.82
2023-01-29T11:25:21.764Z,228.88
2023-01-29T11:28:44.275Z,226.76
2023-01-29T11:31:51.256Z,208.86
2023-01-29T11:35:04.465Z,195.69
2023-01-29T11:38:22.527Z,185.93
2023-01-29T11:41:31.744Z,160.21
2023-01-29T11:44:44.991Z,150.87
2023-01-29T11:47:55.745Z,148.65
2023-01-29T11:51:06.481Z,141.07
2023-01-29T11:54:22.724Z,151.59
2023-01-29T11:57:38.887Z,144.28
2023-01-29T12:00:55.504Z,366.82
2023-01-29T12:04:02.877Z,851.61
2023-01-29T12:07:18.948Z,454.92
2023-01-29T12:10:37.320Z,387.05
2023-01-29T12:13:47.267Z,140.04
2023-01-29T12:17:04.413Z,146.14
2023-01-29T12:20:21.403Z,185.46
2023-01-29T12:23:41.848Z,174.62
2023-01-29T12:26:58.186Z,193.16
2023-01-29T12:30:22.577Z,162.04
2023-01-29T12:33:42.411Z,169.23
2023-01-29T12:36:59.639Z,161.96
2023-01-29T12:40:13.891Z,338.32
2023-01-29T12:43:25.453Z,172.00
2023-01-29T12:46:46.655Z,147.13
2023-01-29T12:50:04.829Z,157.16
2023-01-29T12:53:29.785Z,139.51
2023-01-29T12:56:42.493Z,130.60
2023-01-29T12:59:58.244Z,149.35
2023-01-29T13:03:24.081Z,131.12
2023-01-29T13:06:42.594Z,130.56
2023-01-29T13:10:00.439Z,148.45
2023-01-29T13:13:19.463Z,134.43
2023-01-29T13:16:34.626Z,146.74
2023-01-29T13:19:53.317Z,122.73
2023-01-29T13:23:13.307Z,210.96
2023-01-29T13:26:22.897Z,166.27
2023-01-29T13:29:33.292Z,117.01
2023-01-29T13:32:40.403Z,137.60
2023-01-29T13:35:50.135Z,120.37
2023-01-29T13:39:09.191Z,135.28
2023-01-29T13:42:24.146Z,141.53
2023-01-29T13:45:45.188Z,164.72
2023-01-29T13:48:58.362Z,136.26
2023-01-29T13:52:30.974Z,146.12
2023-01-29T13:55:40.690Z,141.19
2023-01-29T13:58:59.167Z,153.93
2023-01-29T14:02:22.135Z,133.03
2023-01-29T14:05:45.189Z,134.43
2023-01-29T14:08:53.635Z,187.55
2023-01-29T14:12:00.330Z,163.33
2023-01-29T14:15:30.862Z,169.02
2023-01-29T14:18:48.067Z,161.45
2023-01-29T14:21:54.437Z,164.08
2023-01-29T14:25:08.954Z,166.71
2023-01-29T14:28:33.889Z,193.26
2023-01-29T14:31:46.871Z,196.64
2023-01-29T14:35:02.773Z,171.55
2023-01-29T14:38:17.151Z,163.12
2023-01-29T14:41:34.392Z,168.45
2023-01-29T14:45:13.102Z,217.20
2023-01-29T14:48:41.754Z,175.14
2023-01-29T14:51:50.076Z,150.82
2023-01-29T14:55:04.548Z,162.43
2023-01-29T14:58:22.155Z,156.17
2023-01-29T15:01:37.221Z,161.89
2023-01-29T15:04:52.993Z,174.16
2023-01-29T15:08:09.468Z,218.44
2023-01-29T15:11:36.590Z,210.59
2023-01-29T15:14:58.748Z,191.61
2023-01-29T15:18:17.737Z,190.95
2023-01-29T15:21:23.941Z,197.02
2023-01-29T15:24:31.074Z,208.63
2023-01-29T15:27:38.321Z,213.52
2023-01-29T15:30:49.274Z,202.71
2023-01-29T15:34:00.443Z,191.83
2023-01-29T15:37:06.974Z,193.82
2023-01-29T15:40:22.092Z,215.41
2023-01-29T15:43:32.277Z,237.55
2023-01-29T15:46:45.594Z,252.64
2023-01-29T15:49:52.797Z,269.44
2023-01-29T15:53:15.239Z,275.58
2023-01-29T15:56:29.031Z,264.12
2023-01-29T15:59:51.858Z,264.53
2023-01-29T16:03:03.151Z,241.39
2023-01-29T16:06:12.285Z,226.75
2023-01-29T16:09:26.339Z,236.79
2023-01-29T16:12:32.371Z,232.82
2023-01-29T16:15:57.230Z,247.67
2023-01-29T16:19:17.329Z,240.40
2023-01-29T16:22:25.483Z,268.05
2023-01-29T16:25:34.180Z,239.40
2023-01-29T16:28:44.782Z,223.69
2023-01-29T16:32:00.666Z,211.06
2023-01-29T16:35:18.594Z,237.25
2023-01-29T16:38:35.311Z,282.19
2023-01-29T16:41:43.570Z,298.17
2023-01-29T16:44:54.467Z,300.22
2023-01-29T16:48:22.033Z,301.98
2023-01-29T16:51:34.668Z,336.95
2023-01-29T16:54:46.271Z,320.88
2023-01-29T16:57:57.755Z,297.68
2023-01-29T17:01:11.342Z,349.42
2023-01-29T17:04:21.770Z,386.94
2023-01-29T17:07:32.627Z,294.92
2023-01-29T17:10:38.911Z,294.36
2023-01-29T17:13:49.028Z,272.29
2023-01-29T17:16:59.601Z,278.48
2023-01-29T17:20:18.556Z,274.73
2023-01-29T17:23:26.951Z,255.17
2023-01-29T17:26:35.209Z,254.81
2023-01-29T17:29:41.781Z,251.83
2023-01-29T17:32:48.566Z,252.67
2023-01-29T17:35:57.080Z,234.20
2023-01-29T17:39:17.967Z,245.97
2023-01-29T17:42:23.637Z,248.91
2023-01-29T17:45:30.586Z,269.09
2023-01-29T17:48:36.394Z,273.37
2023-01-29T17:51:44.966Z,294.81
2023-01-29T17:54:53.328Z,296.54
2023-01-29T17:58:00.256Z,300.51
2023-01-29T18:01:06.123Z,295.91
2023-01-29T18:04:12.973Z,293.53
2023-01-29T18:07:18.930Z,287.69
2023-01-29T18:10:28.614Z,290.27
2023-01-29T18:13:36.308Z,303.93
2023-01-29T18:16:43.172Z,303.51
2023-01-29T18:19:51.207Z,296.44
2023-01-29T18:22:58.030Z,284.85
2023-01-29T18:26:07.945Z,279.06
2023-01-29T18:29:14.733Z,281.51
2023-01-29T18:32:20.534Z,288.18
2023-01-29T18:35:30.574Z,277.51
2023-01-29T18:38:36.600Z,291.48
2023-01-29T18:41:45.909Z,299.15
2023-01-29T18:44:52.030Z,314.25
2023-01-29T18:47:58.930Z,314.34
2023-01-29T18:51:05.057Z,304.13
2023-01-29T18:54:15.667Z,299.56
2023-01-29T18:58:29.356Z,314.43
2023-01-29T19:00:51.061Z,321.60
2023-01-29T19:03:59.365Z,324.93
2023-01-29T19:07:07.709Z,316.31
2023-01-29T19:10:17.274Z,320.89
2023-01-29T19:13:27.074Z,323.40
2023-01-29T19:16:33.086Z,351.11
2023-01-29T19:19:39.667Z,421.98
2023-01-29T19:22:45.631Z,400.59
2023-01-29T19:25:52.451Z,395.71
2023-01-29T19:29:01.178Z,382.27
2023-01-29T19:32:09.070Z,364.01
2023-01-29T19:35:15.134Z,336.05
2023-01-29T19:38:21.933Z,315.42
2023-01-29T19:41:28.007Z,308.75
2023-01-29T19:44:39.096Z,308.63
2023-01-29T19:47:46.778Z,311.67
2023-01-29T19:50:58.249Z,323.93
2023-01-29T19:54:04.336Z,327.24
2023-01-29T19:57:11.335Z,358.25
2023-01-29T20:00:24.035Z,361.60
2023-01-29T20:03:32.164Z,335.37
2023-01-29T20:06:38.242Z,339.64
2023-01-29T20:09:45.008Z,336.63
2023-01-29T20:12:51.004Z,334.55
2023-01-29T20:16:03.131Z,337.90
2023-01-29T20:19:14.269Z,349.19
2023-01-29T20:22:21.648Z,360.39
2023-01-29T20:25:27.616Z,353.58
2023-01-29T20:28:38.139Z,359.55
2023-01-29T20:31:53.899Z,358.57
2023-01-29T20:35:00.614Z,361.09
2023-01-29T20:38:08.372Z,382.47
2023-01-29T20:41:19.427Z,360.72
2023-01-29T20:44:25.389Z,333.25
2023-01-29T20:47:36.645Z,321.83
2023-01-29T20:50:44.266Z,317.94
2023-01-29T20:53:51.932Z,327.57
2023-01-29T20:56:58.119Z,333.20
2023-01-29T21:00:05.346Z,331.79
2023-01-29T21:03:14.160Z,369.00
2023-01-29T21:06:22.740Z,342.10
2023-01-29T21:09:28.615Z,336.00
2023-01-29T21:12:38.198Z,335.11
2023-01-29T21:15:46.995Z,335.79
2023-01-29T21:18:59.699Z,329.44
2023-01-29T21:22:07.118Z,338.03
2023-01-29T21:25:15.032Z,324.37
2023-01-29T21:28:22.177Z,324.44
2023-01-29T21:31:28.868Z,325.29
2023-01-29T21:34:37.599Z,335.92
2023-01-29T21:37:45.167Z,326.14
2023-01-29T21:40:51.263Z,333.10
2023-01-29T21:43:58.161Z,325.92
2023-01-29T21:47:12.564Z,349.52
2023-01-29T21:50:23.541Z,347.79
2023-01-29T21:53:29.757Z,323.32
2023-01-29T21:56:36.587Z,297.37
2023-01-29T21:59:42.510Z,282.33
2023-01-29T22:02:51.415Z,277.64
2023-01-29T22:06:00.011Z,274.31
2023-01-29T22:09:09.644Z,268.67
2023-01-29T22:12:15.617Z,272.89
2023-01-29T22:15:23.876Z,295.40
2023-01-29T22:18:30.570Z,293.52
2023-01-29T22:21:40.065Z,274.67
2023-01-29T22:24:46.804Z,256.29
2023-01-29T22:27:53.509Z,252.74
2023-01-29T22:31:04.827Z,250.57
2023-01-29T22:34:12.897Z,246.11
2023-01-29T22:37:21.406Z,243.01
2023-01-29T22:40:28.127Z,242.70
2023-01-29T22:43:34.171Z,235.73
2023-01-29T22:46:40.873Z,236.66
2023-01-29T22:49:50.193Z,229.71
2023-01-29T22:52:59.551Z,232.42
2023-01-29T22:56:05.526Z,229.84
2023-01-29T22:59:13.902Z,229.59
2023-01-29T23:02:19.696Z,231.63
2023-01-29T23:05:26.454Z,239.66
2023-01-29T23:08:36.254Z,237.28
2023-01-29T23:11:42.809Z,238.25
2023-01-29T23:14:48.711Z,239.58
2023-01-29T23:17:55.322Z,236.83
2023-01-29T23:21:01.274Z,244.11
2023-01-29T23:24:13.209Z,237.21
2023-01-29T23:27:19.183Z,241.91
2023-01-29T23:30:25.802Z,244.77
2023-01-29T23:33:31.909Z,240.83
2023-01-29T23:36:38.485Z,240.29
2023-01-29T23:39:46.909Z,241.42
2023-01-29T23:42:56.173Z,238.38
2023-01-29T23:46:02.514Z,227.77
2023-01-29T23:49:09.314Z,221.44
2023-01-29T23:52:15.186Z,215.95
2023-01-29T23:55:24.581Z,212.57
2023-01-29T23:58:31.903Z,214.76
